BAW517 EDDF-EGLL
Flight info
| Callsign | BAW517 |
|---|---|
| Flight time | N/A |
| Altitude | 38000 |
| Route | OBOKA5G/25C OBOKA Z29 TORNU DCT ABNED L980 LOGAN |
| Aircraft | B789/H-SDE1E2E3FGHIJ2J3J4J5M1RWXY/LB1D1 |
Departure
| Time | 2026-05-04 09:49 |
|---|---|
| Airport | Frankfurt Main Airport (EDDF) |
Arrival
| Time | N/A |
|---|---|
| Airport | London Heathrow Airport (EGLL) |
| Time | Latitude | Longitude | Altitude | Speed | Heading |
|---|---|---|---|---|---|
| 2026-05-04 09:07 | 50.04746 | 8.56904 | 368 ft | 0 kts | 294° |
| 2026-05-04 09:34 | 50.04745 | 8.56911 | 369 ft | 2 kts | 293° |
| 2026-05-04 09:35 | 50.04740 | 8.56936 | 370 ft | 2 kts | 282° |
| 2026-05-04 09:35 | 50.04738 | 8.56962 | 366 ft | 2 kts | 264° |
| 2026-05-04 09:35 | 50.04743 | 8.56986 | 366 ft | 2 kts | 236° |
| 2026-05-04 09:35 | 50.04755 | 8.57004 | 368 ft | 2 kts | 213° |
| 2026-05-04 09:37 | 50.04769 | 8.57015 | 368 ft | 0 kts | 203° |
| 2026-05-04 09:37 | 50.04768 | 8.57015 | 368 ft | 0 kts | 203° |
| 2026-05-04 09:39 | 50.04754 | 8.57005 | 372 ft | 4 kts | 203° |
| 2026-05-04 09:39 | 50.04717 | 8.56980 | 370 ft | 7 kts | 203° |
| 2026-05-04 09:39 | 50.04662 | 8.56944 | 371 ft | 10 kts | 202° |
| 2026-05-04 09:40 | 50.04585 | 8.56906 | 371 ft | 13 kts | 194° |
| 2026-05-04 09:40 | 50.04565 | 8.56898 | 371 ft | 0 kts | 192° |
| 2026-05-04 09:40 | 50.04554 | 8.56895 | 372 ft | 3 kts | 191° |
| 2026-05-04 09:40 | 50.04527 | 8.56885 | 365 ft | 5 kts | 195° |
| 2026-05-04 09:41 | 50.04487 | 8.56871 | 366 ft | 7 kts | 193° |
| 2026-05-04 09:42 | 50.04298 | 8.56921 | 377 ft | 4 kts | 95° |
| 2026-05-04 09:43 | 50.04304 | 8.56979 | 373 ft | 8 kts | 79° |
| 2026-05-04 09:43 | 50.04322 | 8.57085 | 372 ft | 13 kts | 74° |
| 2026-05-04 09:43 | 50.04352 | 8.57216 | 371 ft | 10 kts | 69° |
| 2026-05-04 09:43 | 50.04377 | 8.57324 | 372 ft | 11 kts | 69° |
| 2026-05-04 09:44 | 50.04394 | 8.57397 | 373 ft | 0 kts | 70° |
| 2026-05-04 09:44 | 50.04399 | 8.57417 | 375 ft | 4 kts | 70° |
| 2026-05-04 09:46 | 50.04557 | 8.58084 | 377 ft | 14 kts | 69° |
| 2026-05-04 09:46 | 50.04594 | 8.58231 | 377 ft | 15 kts | 70° |
| 2026-05-04 09:46 | 50.04629 | 8.58378 | 379 ft | 15 kts | 69° |
| 2026-05-04 09:47 | 50.04632 | 8.58540 | 376 ft | 14 kts | 127° |
| 2026-05-04 09:47 | 50.04567 | 8.58581 | 378 ft | 9 kts | 168° |
| 2026-05-04 09:49 | 50.03400 | 8.53854 | 2451 ft | 151 kts | 248° |
| 2026-05-04 09:49 | 50.02967 | 8.52180 | 3182 ft | 182 kts | 247° |
| 2026-05-04 09:49 | 50.02651 | 8.50116 | 3872 ft | 213 kts | 270° |
| 2026-05-04 09:51 | 50.01849 | 8.34492 | 8588 ft | 266 kts | 258° |
| 2026-05-04 09:51 | 50.01503 | 8.31617 | 9840 ft | 273 kts | 258° |
| 2026-05-04 09:51 | 50.01306 | 8.28669 | 10898 ft | 281 kts | 275° |
| 2026-05-04 09:51 | 50.01854 | 8.25658 | 11666 ft | 304 kts | 289° |
| 2026-05-04 09:52 | 50.02761 | 8.22514 | 12169 ft | 333 kts | 293° |
| 2026-05-04 09:52 | 50.03805 | 8.19151 | 12837 ft | 352 kts | 292° |
| 2026-05-04 09:52 | 50.04844 | 8.15649 | 13028 ft | 358 kts | 291° |
| 2026-05-04 09:52 | 50.05892 | 8.12174 | 13036 ft | 355 kts | 298° |
| 2026-05-04 09:53 | 50.07512 | 8.09230 | 13985 ft | 357 kts | 308° |
| 2026-05-04 09:53 | 50.09045 | 8.06169 | 14978 ft | 360 kts | 303° |
| 2026-05-04 09:53 | 50.10515 | 8.02982 | 15974 ft | 365 kts | 303° |
| 2026-05-04 09:53 | 50.12095 | 7.99858 | 16963 ft | 371 kts | 306° |
| 2026-05-04 09:54 | 50.13767 | 7.96743 | 17948 ft | 376 kts | 306° |
| 2026-05-04 09:54 | 50.15410 | 7.93584 | 18821 ft | 380 kts | 305° |
| 2026-05-04 09:54 | 50.17053 | 7.90324 | 19655 ft | 385 kts | 304° |
| 2026-05-04 09:54 | 50.18731 | 7.87017 | 20451 ft | 390 kts | 305° |
| 2026-05-04 09:55 | 50.20443 | 7.83687 | 20980 ft | 401 kts | 305° |
| 2026-05-04 09:55 | 50.22194 | 7.80274 | 20985 ft | 401 kts | 304° |
| 2026-05-04 09:55 | 50.23928 | 7.76889 | 20987 ft | 396 kts | 306° |
| 2026-05-04 09:55 | 50.25960 | 7.73944 | 20997 ft | 404 kts | 321° |
| 2026-05-04 09:56 | 50.28421 | 7.71797 | 20996 ft | 408 kts | 333° |
| 2026-05-04 09:56 | 50.31026 | 7.69995 | 20988 ft | 409 kts | 332° |
| 2026-05-04 09:56 | 50.33630 | 7.68221 | 20990 ft | 409 kts | 333° |
| 2026-05-04 09:56 | 50.36247 | 7.66444 | 20988 ft | 409 kts | 333° |
| 2026-05-04 09:57 | 50.38845 | 7.64659 | 20990 ft | 408 kts | 332° |
| 2026-05-04 09:57 | 50.40604 | 7.63445 | 20988 ft | 408 kts | 332° |
| 2026-05-04 09:57 | 50.43175 | 7.61673 | 20990 ft | 408 kts | 333° |
| 2026-05-04 09:57 | 50.45805 | 7.59867 | 20987 ft | 408 kts | 332° |
| 2026-05-04 09:58 | 50.48370 | 7.58101 | 20987 ft | 408 kts | 332° |
| 2026-05-04 09:58 | 50.50985 | 7.56294 | 20989 ft | 409 kts | 332° |
| 2026-05-04 09:58 | 50.53591 | 7.54492 | 20993 ft | 410 kts | 332° |
| 2026-05-04 10:00 | 50.70339 | 7.38068 | 20992 ft | 405 kts | 323° |
| 2026-05-04 10:00 | 50.72662 | 7.35636 | 20989 ft | 402 kts | 318° |
| 2026-05-04 10:02 | 50.82314 | 7.09777 | 20991 ft | 390 kts | 293° |
| 2026-05-04 10:04 | 50.90963 | 6.82948 | 20992 ft | 391 kts | 292° |
| 2026-05-04 10:04 | 50.92192 | 6.79113 | 20993 ft | 391 kts | 292° |
| 2026-05-04 10:04 | 50.93425 | 6.75259 | 20993 ft | 392 kts | 292° |
| 2026-05-04 10:04 | 50.94656 | 6.71406 | 20993 ft | 393 kts | 292° |
| 2026-05-04 10:05 | 50.95893 | 6.67529 | 20994 ft | 394 kts | 293° |
| 2026-05-04 10:05 | 50.97131 | 6.63646 | 20991 ft | 394 kts | 293° |
| 2026-05-04 10:05 | 50.98358 | 6.59786 | 20991 ft | 393 kts | 292° |
| 2026-05-04 10:05 | 50.99590 | 6.55905 | 20989 ft | 393 kts | 292° |
| 2026-05-04 10:06 | 51.00824 | 6.52013 | 20990 ft | 393 kts | 292° |
| 2026-05-04 10:06 | 51.02051 | 6.48137 | 20992 ft | 393 kts | 292° |
| 2026-05-04 10:06 | 51.03261 | 6.44307 | 20990 ft | 392 kts | 292° |
| 2026-05-04 10:08 | 51.10597 | 6.20971 | 20994 ft | 395 kts | 292° |
| 2026-05-04 10:08 | 51.11818 | 6.17059 | 20990 ft | 394 kts | 292° |
| 2026-05-04 10:08 | 51.13044 | 6.13120 | 20994 ft | 404 kts | 292° |
| 2026-05-04 10:08 | 51.14151 | 6.09065 | 20991 ft | 397 kts | 283° |
| 2026-05-04 10:09 | 51.14852 | 6.04818 | 20989 ft | 389 kts | 281° |
| 2026-05-04 10:09 | 51.15532 | 6.00706 | 20989 ft | 388 kts | 281° |
| 2026-05-04 10:09 | 51.16206 | 5.96556 | 20980 ft | 389 kts | 281° |
| 2026-05-04 10:09 | 51.16880 | 5.92374 | 20979 ft | 385 kts | 281° |
| 2026-05-04 10:10 | 51.17549 | 5.88241 | 20977 ft | 387 kts | 281° |
| 2026-05-04 10:10 | 51.18227 | 5.84081 | 20978 ft | 387 kts | 282° |
| 2026-05-04 10:10 | 51.19228 | 5.80085 | 20986 ft | 391 kts | 290° |
| 2026-05-04 10:10 | 51.20284 | 5.76091 | 20991 ft | 391 kts | 288° |
| 2026-05-04 10:11 | 51.21316 | 5.72066 | 20990 ft | 390 kts | 289° |
| 2026-05-04 10:11 | 51.22369 | 5.68064 | 20991 ft | 390 kts | 289° |
| 2026-05-04 10:11 | 51.23416 | 5.64136 | 20989 ft | 391 kts | 289° |
| 2026-05-04 10:11 | 51.24469 | 5.60143 | 20992 ft | 391 kts | 289° |
| 2026-05-04 10:12 | 51.25517 | 5.56127 | 20990 ft | 392 kts | 289° |
| 2026-05-04 10:12 | 51.26566 | 5.52112 | 20990 ft | 392 kts | 289° |
| 2026-05-04 10:12 | 51.27620 | 5.48089 | 20991 ft | 391 kts | 289° |
| 2026-05-04 10:12 | 51.28672 | 5.44062 | 20994 ft | 391 kts | 289° |
| 2026-05-04 10:13 | 51.29716 | 5.40053 | 20993 ft | 391 kts | 289° |
| 2026-05-04 10:13 | 51.30761 | 5.36032 | 20992 ft | 390 kts | 289° |
| 2026-05-04 10:13 | 51.31802 | 5.32023 | 20995 ft | 390 kts | 289° |
| 2026-05-04 10:13 | 51.32839 | 5.28023 | 20989 ft | 390 kts | 289° |
| 2026-05-04 10:14 | 51.33875 | 5.24017 | 20990 ft | 390 kts | 289° |
| 2026-05-04 10:14 | 51.34900 | 5.20045 | 20995 ft | 391 kts | 289° |
| 2026-05-04 10:16 | 51.42116 | 4.91903 | 20989 ft | 391 kts | 289° |
| 2026-05-04 10:16 | 51.43140 | 4.87879 | 20974 ft | 391 kts | 289° |
| 2026-05-04 10:16 | 51.44161 | 4.83859 | 20973 ft | 390 kts | 289° |
| 2026-05-04 10:16 | 51.45188 | 4.79811 | 20980 ft | 391 kts | 288° |
| 2026-05-04 10:17 | 51.46211 | 4.75771 | 20993 ft | 391 kts | 288° |
| 2026-05-04 10:17 | 51.47229 | 4.71742 | 20976 ft | 392 kts | 288° |
| 2026-05-04 10:19 | 51.54353 | 4.43348 | 20985 ft | 393 kts | 288° |
| 2026-05-04 10:19 | 51.55368 | 4.39273 | 20995 ft | 393 kts | 288° |
| 2026-05-04 10:19 | 51.56395 | 4.35146 | 20995 ft | 392 kts | 288° |
| 2026-05-04 10:19 | 51.57393 | 4.31123 | 20993 ft | 393 kts | 288° |
| 2026-05-04 10:20 | 51.58402 | 4.27046 | 20991 ft | 393 kts | 288° |
| 2026-05-04 10:20 | 51.59410 | 4.22973 | 20988 ft | 392 kts | 288° |
| 2026-05-04 10:20 | 51.60419 | 4.18882 | 20990 ft | 392 kts | 288° |
| 2026-05-04 10:20 | 51.61424 | 4.14802 | 20999 ft | 393 kts | 288° |
| 2026-05-04 10:21 | 51.62432 | 4.10703 | 20993 ft | 393 kts | 288° |
| 2026-05-04 10:21 | 51.63436 | 4.06612 | 20994 ft | 392 kts | 288° |
| 2026-05-04 10:21 | 51.64433 | 4.02546 | 20991 ft | 392 kts | 288° |
| 2026-05-04 10:21 | 51.65432 | 3.98458 | 20998 ft | 392 kts | 288° |
| 2026-05-04 10:22 | 51.67425 | 3.90284 | 20999 ft | 392 kts | 287° |
| 2026-05-04 10:22 | 51.68420 | 3.86191 | 20998 ft | 392 kts | 287° |
| 2026-05-04 10:22 | 51.69412 | 3.82105 | 20999 ft | 392 kts | 287° |
| 2026-05-04 10:23 | 51.70412 | 3.77976 | 20999 ft | 392 kts | 287° |
| 2026-05-04 10:23 | 51.71393 | 3.73920 | 21001 ft | 391 kts | 287° |
| 2026-05-04 10:25 | 51.78271 | 3.45259 | 21004 ft | 391 kts | 287° |
| 2026-05-04 10:25 | 51.79248 | 3.41157 | 21004 ft | 391 kts | 287° |
| 2026-05-04 10:25 | 51.80222 | 3.37057 | 21007 ft | 391 kts | 287° |
| 2026-05-04 10:25 | 51.81194 | 3.32960 | 21011 ft | 391 kts | 287° |
| 2026-05-04 10:26 | 51.82170 | 3.28841 | 21009 ft | 391 kts | 287° |
| 2026-05-04 10:26 | 51.83141 | 3.24733 | 21010 ft | 390 kts | 287° |
| 2026-05-04 10:26 | 51.84100 | 3.20641 | 21011 ft | 388 kts | 285° |
| 2026-05-04 10:26 | 51.84649 | 3.16417 | 21012 ft | 383 kts | 271° |
| 2026-05-04 10:27 | 51.84589 | 3.12141 | 21013 ft | 378 kts | 261° |
| 2026-05-04 10:27 | 51.84325 | 3.07908 | 21012 ft | 379 kts | 261° |
| 2026-05-04 10:27 | 51.84054 | 3.03726 | 21009 ft | 379 kts | 261° |
| 2026-05-04 10:27 | 51.83773 | 2.99488 | 21007 ft | 378 kts | 261° |
| 2026-05-04 10:28 | 51.83494 | 2.95259 | 21008 ft | 378 kts | 261° |
| 2026-05-04 10:28 | 51.83217 | 2.91026 | 21004 ft | 378 kts | 261° |
| 2026-05-04 10:28 | 51.82946 | 2.86882 | 20992 ft | 362 kts | 261° |
| 2026-05-04 10:28 | 51.82683 | 2.82908 | 20990 ft | 347 kts | 260° |
| 2026-05-04 10:29 | 51.82424 | 2.79080 | 20983 ft | 342 kts | 260° |
| 2026-05-04 10:29 | 51.82163 | 2.75258 | 20988 ft | 345 kts | 260° |
| 2026-05-04 10:29 | 51.81901 | 2.71376 | 20990 ft | 345 kts | 260° |
| 2026-05-04 10:29 | 51.81640 | 2.67515 | 20989 ft | 346 kts | 260° |
| 2026-05-04 10:30 | 51.81377 | 2.63660 | 20991 ft | 346 kts | 260° |
| 2026-05-04 10:30 | 51.81110 | 2.59785 | 20991 ft | 347 kts | 260° |
| 2026-05-04 10:30 | 51.80843 | 2.55915 | 20996 ft | 347 kts | 260° |
| 2026-05-04 10:30 | 51.80573 | 2.52023 | 20996 ft | 348 kts | 260° |
| 2026-05-04 10:31 | 51.80301 | 2.48122 | 20997 ft | 348 kts | 260° |
| 2026-05-04 10:31 | 51.80032 | 2.44290 | 20997 ft | 348 kts | 260° |
| 2026-05-04 10:32 | 51.78419 | 2.21309 | 21009 ft | 347 kts | 263° |
| 2026-05-04 10:33 | 51.78222 | 2.17410 | 21017 ft | 347 kts | 260° |
| 2026-05-04 10:33 | 51.77957 | 2.13538 | 21011 ft | 347 kts | 260° |
| 2026-05-04 10:33 | 51.77714 | 2.09679 | 21010 ft | 347 kts | 261° |
| 2026-05-04 10:33 | 51.77497 | 2.05798 | 21014 ft | 346 kts | 261° |
| 2026-05-04 10:34 | 51.77274 | 2.01926 | 21008 ft | 346 kts | 261° |
| 2026-05-04 10:34 | 51.77040 | 1.98076 | 20749 ft | 342 kts | 261° |
| 2026-05-04 10:34 | 51.76802 | 1.94212 | 20035 ft | 345 kts | 261° |
| 2026-05-04 10:34 | 51.76571 | 1.90382 | 19513 ft | 342 kts | 261° |
| 2026-05-04 10:35 | 51.76340 | 1.86573 | 18955 ft | 339 kts | 261° |
| 2026-05-04 10:35 | 51.76108 | 1.82793 | 18409 ft | 337 kts | 261° |
| 2026-05-04 10:35 | 51.75877 | 1.79050 | 17806 ft | 335 kts | 261° |
| 2026-05-04 10:35 | 51.75648 | 1.75354 | 17205 ft | 332 kts | 262° |
| 2026-05-04 10:36 | 51.75416 | 1.71614 | 16607 ft | 330 kts | 262° |
| 2026-05-04 10:36 | 51.75189 | 1.67994 | 16063 ft | 327 kts | 262° |
| 2026-05-04 10:36 | 51.74964 | 1.64401 | 16010 ft | 318 kts | 262° |
| 2026-05-04 10:36 | 51.74736 | 1.60815 | 16022 ft | 324 kts | 262° |
| 2026-05-04 10:37 | 51.74504 | 1.57180 | 16022 ft | 326 kts | 262° |
| 2026-05-04 10:37 | 51.74273 | 1.53544 | 16023 ft | 327 kts | 262° |
| 2026-05-04 10:37 | 51.74040 | 1.49881 | 16022 ft | 328 kts | 262° |
| 2026-05-04 10:37 | 51.73804 | 1.46224 | 16023 ft | 328 kts | 262° |
| 2026-05-04 10:39 | 51.72372 | 1.24339 | 16021 ft | 327 kts | 262° |
| 2026-05-04 10:39 | 51.72129 | 1.20702 | 16019 ft | 328 kts | 262° |
| 2026-05-04 10:39 | 51.71884 | 1.17037 | 16023 ft | 328 kts | 262° |
| 2026-05-04 10:40 | 51.71638 | 1.13371 | 16023 ft | 329 kts | 262° |
| 2026-05-04 10:40 | 51.71391 | 1.09709 | 16022 ft | 329 kts | 262° |
| 2026-05-04 10:40 | 51.71140 | 1.06016 | 16017 ft | 328 kts | 261° |
| 2026-05-04 10:40 | 51.70979 | 1.03628 | 15698 ft | 323 kts | 261° |
| 2026-05-04 10:41 | 51.70730 | 1.00008 | 15012 ft | 326 kts | 261° |
| 2026-05-04 10:41 | 51.70481 | 0.96379 | 14470 ft | 322 kts | 262° |
| 2026-05-04 10:41 | 51.70235 | 0.92809 | 13908 ft | 320 kts | 262° |
| 2026-05-04 10:41 | 51.69988 | 0.89241 | 13297 ft | 318 kts | 262° |
| 2026-05-04 10:42 | 51.69742 | 0.85717 | 12701 ft | 315 kts | 262° |
| 2026-05-04 10:42 | 51.69499 | 0.82232 | 12113 ft | 312 kts | 262° |
| 2026-05-04 10:42 | 51.69256 | 0.78777 | 11547 ft | 309 kts | 262° |
| 2026-05-04 10:42 | 51.69014 | 0.75346 | 10973 ft | 306 kts | 262° |
| 2026-05-04 10:43 | 51.68776 | 0.71986 | 10428 ft | 303 kts | 262° |
| 2026-05-04 10:44 | 51.67116 | 0.48918 | 9018 ft | 295 kts | 262° |
| 2026-05-04 10:45 | 51.66876 | 0.45645 | 9014 ft | 296 kts | 262° |
| 2026-05-04 10:45 | 51.66633 | 0.42339 | 9016 ft | 296 kts | 262° |
| 2026-05-04 10:45 | 51.66391 | 0.39050 | 9019 ft | 295 kts | 262° |
| 2026-05-04 10:45 | 51.66155 | 0.35842 | 9003 ft | 278 kts | 262° |
| 2026-05-04 10:46 | 51.65714 | 0.32975 | 9001 ft | 255 kts | 246° |
| 2026-05-04 10:46 | 51.64974 | 0.30473 | 9003 ft | 247 kts | 242° |
| 2026-05-04 10:46 | 51.64181 | 0.28042 | 9014 ft | 245 kts | 241° |
| 2026-05-04 10:46 | 51.63378 | 0.25629 | 9016 ft | 243 kts | 241° |
| 2026-05-04 10:47 | 51.62577 | 0.23235 | 9015 ft | 243 kts | 241° |
| 2026-05-04 10:47 | 51.61774 | 0.20830 | 9023 ft | 244 kts | 241° |
| 2026-05-04 10:47 | 51.60972 | 0.18435 | 9022 ft | 244 kts | 241° |
| 2026-05-04 10:47 | 51.60177 | 0.16063 | 9025 ft | 234 kts | 241° |
| 2026-05-04 10:49 | 51.55181 | 0.01600 | 7532 ft | 197 kts | 239° |
| 2026-05-04 10:49 | 51.54510 | -0.00209 | 7458 ft | 184 kts | 239° |
| 2026-05-04 10:50 | 51.53851 | -0.01992 | 7115 ft | 187 kts | 239° |
| 2026-05-04 10:51 | 51.49216 | -0.14278 | 4529 ft | 182 kts | 239° |
| 2026-05-04 10:52 | 51.48557 | -0.16000 | 4026 ft | 180 kts | 239° |
| 2026-05-04 10:52 | 51.48028 | -0.17791 | 3484 ft | 180 kts | 259° |
| 2026-05-04 10:52 | 51.48014 | -0.19790 | 3097 ft | 176 kts | 266° |
| 2026-05-04 10:54 | 51.47850 | -0.32767 | 1560 ft | 157 kts | 269° |
| 2026-05-04 10:54 | 51.47840 | -0.34513 | 1343 ft | 156 kts | 269° |